sensor_id;sensor_type;location;lat;lon;timestamp;P1;durP1;ratioP1;P2;durP2;ratioP2
33108;SDS011;19481;51.118;6.940;2023-04-24T00:02:17;0.70;;;0.70;;
33108;SDS011;19481;51.118;6.940;2023-04-24T00:07:20;0.80;;;0.80;;
33108;SDS011;19481;51.118;6.940;2023-04-24T00:12:22;0.82;;;0.82;;
33108;SDS011;19481;51.118;6.940;2023-04-24T00:17:24;0.77;;;0.77;;
33108;SDS011;19481;51.118;6.940;2023-04-24T00:22:27;0.68;;;0.68;;
33108;SDS011;19481;51.118;6.940;2023-04-24T00:27:29;0.82;;;0.80;;
33108;SDS011;19481;51.118;6.940;2023-04-24T00:32:31;0.80;;;0.80;;
33108;SDS011;19481;51.118;6.940;2023-04-24T00:37:34;0.80;;;0.80;;
33108;SDS011;19481;51.118;6.940;2023-04-24T00:42:36;0.80;;;0.80;;
33108;SDS011;19481;51.118;6.940;2023-04-24T00:47:37;0.80;;;0.80;;
33108;SDS011;19481;51.118;6.940;2023-04-24T00:52:41;0.70;;;0.70;;
33108;SDS011;19481;51.118;6.940;2023-04-24T00:57:42;1.25;;;1.15;;
33108;SDS011;19481;51.118;6.940;2023-04-24T01:02:45;0.60;;;0.55;;
33108;SDS011;19481;51.118;6.940;2023-04-24T01:07:48;1.00;;;0.90;;
33108;SDS011;19481;51.118;6.940;2023-04-24T01:12:50;1.50;;;1.15;;
33108;SDS011;19481;51.118;6.940;2023-04-24T01:17:52;0.95;;;0.95;;
33108;SDS011;19481;51.118;6.940;2023-04-24T01:22:55;2.13;;;1.10;;
33108;SDS011;19481;51.118;6.940;2023-04-24T01:27:57;2.45;;;1.35;;
33108;SDS011;19481;51.118;6.940;2023-04-24T01:32:59;2.42;;;1.20;;
33108;SDS011;19481;51.118;6.940;2023-04-24T01:38:03;1.73;;;1.60;;
33108;SDS011;19481;51.118;6.940;2023-04-24T01:43:06;2.53;;;1.77;;
33108;SDS011;19481;51.118;6.940;2023-04-24T01:48:08;2.30;;;1.50;;
33108;SDS011;19481;51.118;6.940;2023-04-24T01:53:11;4.18;;;2.05;;
33108;SDS011;19481;51.118;6.940;2023-04-24T01:58:13;3.78;;;2.30;;
33108;SDS011;19481;51.118;6.940;2023-04-24T02:03:15;2.58;;;2.15;;
33108;SDS011;19481;51.118;6.940;2023-04-24T02:08:18;2.50;;;2.30;;
33108;SDS011;19481;51.118;6.940;2023-04-24T02:13:20;2.63;;;2.42;;
33108;SDS011;19481;51.118;6.940;2023-04-24T02:18:21;3.63;;;2.38;;
33108;SDS011;19481;51.118;6.940;2023-04-24T02:23:24;3.42;;;2.50;;
33108;SDS011;19481;51.118;6.940;2023-04-24T02:28:27;5.30;;;2.78;;
33108;SDS011;19481;51.118;6.940;2023-04-24T02:33:28;5.45;;;3.00;;
33108;SDS011;19481;51.118;6.940;2023-04-24T02:38:31;8.57;;;3.92;;
33108;SDS011;19481;51.118;6.940;2023-04-24T02:43:33;7.65;;;3.35;;
33108;SDS011;19481;51.118;6.940;2023-04-24T02:48:34;5.28;;;3.28;;
33108;SDS011;19481;51.118;6.940;2023-04-24T02:53:37;5.13;;;3.08;;
33108;SDS011;19481;51.118;6.940;2023-04-24T02:58:39;4.50;;;2.83;;
33108;SDS011;19481;51.118;6.940;2023-04-24T03:03:40;5.57;;;2.95;;
33108;SDS011;19481;51.118;6.940;2023-04-24T03:08:43;6.55;;;3.22;;
33108;SDS011;19481;51.118;6.940;2023-04-24T03:13:45;5.30;;;3.03;;
33108;SDS011;19481;51.118;6.940;2023-04-24T03:18:47;3.83;;;2.97;;
33108;SDS011;19481;51.118;6.940;2023-04-24T03:23:50;6.72;;;3.38;;
33108;SDS011;19481;51.118;6.940;2023-04-24T03:28:51;4.05;;;2.90;;
33108;SDS011;19481;51.118;6.940;2023-04-24T03:33:53;5.43;;;3.75;;
33108;SDS011;19481;51.118;6.940;2023-04-24T03:38:56;6.85;;;3.67;;
33108;SDS011;19481;51.118;6.940;2023-04-24T03:43:57;4.22;;;2.95;;
33108;SDS011;19481;51.118;6.940;2023-04-24T03:49:00;12.40;;;3.95;;
33108;SDS011;19481;51.118;6.940;2023-04-24T03:54:03;5.95;;;3.70;;
33108;SDS011;19481;51.118;6.940;2023-04-24T03:59:04;4.35;;;3.63;;
33108;SDS011;19481;51.118;6.940;2023-04-24T04:04:06;4.43;;;3.55;;
33108;SDS011;19481;51.118;6.940;2023-04-24T04:09:09;6.65;;;4.07;;
33108;SDS011;19481;51.118;6.940;2023-04-24T04:14:11;5.55;;;2.97;;
33108;SDS011;19481;51.118;6.940;2023-04-24T04:19:13;6.10;;;3.78;;
33108;SDS011;19481;51.118;6.940;2023-04-24T04:24:16;6.72;;;3.88;;
33108;SDS011;19481;51.118;6.940;2023-04-24T04:29:17;7.75;;;3.70;;
33108;SDS011;19481;51.118;6.940;2023-04-24T04:34:19;5.90;;;3.55;;
33108;SDS011;19481;51.118;6.940;2023-04-24T04:39:22;6.65;;;3.47;;
33108;SDS011;19481;51.118;6.940;2023-04-24T04:44:24;4.55;;;2.97;;
33108;SDS011;19481;51.118;6.940;2023-04-24T04:49:27;8.63;;;3.67;;
33108;SDS011;19481;51.118;6.940;2023-04-24T04:54:30;3.30;;;2.95;;
33108;SDS011;19481;51.118;6.940;2023-04-24T04:59:32;12.45;;;3.47;;
33108;SDS011;19481;51.118;6.940;2023-04-24T05:04:33;5.38;;;3.40;;
33108;SDS011;19481;51.118;6.940;2023-04-24T05:09:36;3.90;;;2.90;;
33108;SDS011;19481;51.118;6.940;2023-04-24T05:14:38;2.90;;;2.60;;
33108;SDS011;19481;51.118;6.940;2023-04-24T05:19:40;3.05;;;2.65;;
33108;SDS011;19481;51.118;6.940;2023-04-24T05:24:43;4.55;;;3.00;;
33108;SDS011;19481;51.118;6.940;2023-04-24T05:29:45;3.40;;;2.95;;
33108;SDS011;19481;51.118;6.940;2023-04-24T05:34:46;4.35;;;3.15;;
33108;SDS011;19481;51.118;6.940;2023-04-24T05:39:49;3.70;;;3.10;;
33108;SDS011;19481;51.118;6.940;2023-04-24T05:44:51;3.60;;;3.20;;
33108;SDS011;19481;51.118;6.940;2023-04-24T05:49:54;4.20;;;3.10;;
33108;SDS011;19481;51.118;6.940;2023-04-24T05:54:56;8.18;;;3.45;;
33108;SDS011;19481;51.118;6.940;2023-04-24T05:59:58;3.30;;;2.97;;
33108;SDS011;19481;51.118;6.940;2023-04-24T06:05:00;7.25;;;3.33;;
33108;SDS011;19481;51.118;6.940;2023-04-24T06:10:03;3.63;;;3.33;;
33108;SDS011;19481;51.118;6.940;2023-04-24T06:15:06;4.55;;;3.38;;
33108;SDS011;19481;51.118;6.940;2023-04-24T06:20:08;9.77;;;3.10;;
33108;SDS011;19481;51.118;6.940;2023-04-24T06:25:12;3.08;;;2.50;;
33108;SDS011;19481;51.118;6.940;2023-04-24T06:30:14;4.55;;;2.22;;
33108;SDS011;19481;51.118;6.940;2023-04-24T06:35:16;3.10;;;2.13;;
33108;SDS011;19481;51.118;6.940;2023-04-24T06:40:19;4.38;;;2.13;;
33108;SDS011;19481;51.118;6.940;2023-04-24T06:45:21;2.30;;;2.15;;
33108;SDS011;19481;51.118;6.940;2023-04-24T06:50:22;2.20;;;2.00;;
33108;SDS011;19481;51.118;6.940;2023-04-24T06:55:25;3.08;;;1.65;;
33108;SDS011;19481;51.118;6.940;2023-04-24T07:00:27;2.30;;;1.83;;
33108;SDS011;19481;51.118;6.940;2023-04-24T07:05:30;1.85;;;1.75;;
33108;SDS011;19481;51.118;6.940;2023-04-24T07:10:35;1.70;;;1.45;;
33108;SDS011;19481;51.118;6.940;2023-04-24T07:15:36;3.60;;;2.03;;
33108;SDS011;19481;51.118;6.940;2023-04-24T07:20:38;1.40;;;1.30;;
33108;SDS011;19481;51.118;6.940;2023-04-24T07:25:42;1.33;;;1.20;;
33108;SDS011;19481;51.118;6.940;2023-04-24T07:30:44;1.35;;;1.25;;
33108;SDS011;19481;51.118;6.940;2023-04-24T07:35:45;1.25;;;1.15;;
33108;SDS011;19481;51.118;6.940;2023-04-24T07:40:48;1.45;;;1.35;;
33108;SDS011;19481;51.118;6.940;2023-04-24T07:45:50;3.63;;;1.20;;
33108;SDS011;19481;51.118;6.940;2023-04-24T07:50:52;2.67;;;0.95;;
33108;SDS011;19481;51.118;6.940;2023-04-24T07:55:56;1.58;;;1.45;;
33108;SDS011;19481;51.118;6.940;2023-04-24T08:00:57;1.30;;;1.02;;
33108;SDS011;19481;51.118;6.940;2023-04-24T08:05:59;0.80;;;0.73;;
33108;SDS011;19481;51.118;6.940;2023-04-24T08:11:02;0.70;;;0.70;;
33108;SDS011;19481;51.118;6.940;2023-04-24T08:16:05;1.52;;;0.90;;
33108;SDS011;19481;51.118;6.940;2023-04-24T08:21:07;0.80;;;0.80;;
33108;SDS011;19481;51.118;6.940;2023-04-24T08:26:10;0.70;;;0.70;;
33108;SDS011;19481;51.118;6.940;2023-04-24T08:31:12;1.45;;;1.30;;
33108;SDS011;19481;51.118;6.940;2023-04-24T08:36:13;4.20;;;1.58;;
33108;SDS011;19481;51.118;6.940;2023-04-24T08:41:16;1.90;;;1.70;;
33108;SDS011;19481;51.118;6.940;2023-04-24T08:46:19;3.53;;;1.42;;
33108;SDS011;19481;51.118;6.940;2023-04-24T08:51:21;1.83;;;1.60;;
33108;SDS011;19481;51.118;6.940;2023-04-24T08:56:25;1.73;;;1.30;;
33108;SDS011;19481;51.118;6.940;2023-04-24T09:01:28;1.75;;;1.30;;
33108;SDS011;19481;51.118;6.940;2023-04-24T09:06:32;1.65;;;1.55;;
33108;SDS011;19481;51.118;6.940;2023-04-24T09:11:37;1.77;;;1.67;;
33108;SDS011;19481;51.118;6.940;2023-04-24T09:16:38;1.60;;;1.50;;
33108;SDS011;19481;51.118;6.940;2023-04-24T09:21:40;3.25;;;2.05;;
33108;SDS011;19481;51.118;6.940;2023-04-24T09:26:43;3.08;;;1.88;;
33108;SDS011;19481;51.118;6.940;2023-04-24T09:31:45;2.72;;;1.90;;
33108;SDS011;19481;51.118;6.940;2023-04-24T09:36:47;3.67;;;2.20;;
33108;SDS011;19481;51.118;6.940;2023-04-24T09:41:50;2.38;;;2.10;;
33108;SDS011;19481;51.118;6.940;2023-04-24T09:46:53;2.25;;;2.05;;
33108;SDS011;19481;51.118;6.940;2023-04-24T09:52:02;3.22;;;2.45;;
33108;SDS011;19481;51.118;6.940;2023-04-24T09:57:06;7.32;;;2.83;;
33108;SDS011;19481;51.118;6.940;2023-04-24T10:02:16;7.32;;;3.13;;
33108;SDS011;19481;51.118;6.940;2023-04-24T10:07:18;3.85;;;2.42;;
33108;SDS011;19481;51.118;6.940;2023-04-24T10:12:21;5.28;;;3.13;;
33108;SDS011;19481;51.118;6.940;2023-04-24T10:17:25;8.65;;;4.25;;
33108;SDS011;19481;51.118;6.940;2023-04-24T10:22:27;4.40;;;3.13;;
33108;SDS011;19481;51.118;6.940;2023-04-24T10:27:31;8.85;;;3.05;;
33108;SDS011;19481;51.118;6.940;2023-04-24T10:32:33;5.45;;;3.40;;
33108;SDS011;19481;51.118;6.940;2023-04-24T10:37:36;5.68;;;2.90;;
33108;SDS011;19481;51.118;6.940;2023-04-24T10:42:42;6.45;;;2.85;;
33108;SDS011;19481;51.118;6.940;2023-04-24T10:47:50;8.00;;;3.00;;
33108;SDS011;19481;51.118;6.940;2023-04-24T10:52:53;4.05;;;2.65;;
33108;SDS011;19481;51.118;6.940;2023-04-24T10:58:06;5.05;;;2.60;;
33108;SDS011;19481;51.118;6.940;2023-04-24T11:03:22;5.43;;;2.35;;
33108;SDS011;19481;51.118;6.940;2023-04-24T11:08:27;7.13;;;2.60;;
33108;SDS011;19481;51.118;6.940;2023-04-24T11:19:08;3.53;;;2.33;;
33108;SDS011;19481;51.118;6.940;2023-04-24T11:24:21;7.18;;;2.08;;
33108;SDS011;19481;51.118;6.940;2023-04-24T11:29:42;4.72;;;2.47;;
33108;SDS011;19481;51.118;6.940;2023-04-24T11:34:47;7.97;;;2.42;;
33108;SDS011;19481;51.118;6.940;2023-04-24T11:39:50;5.85;;;2.08;;
33108;SDS011;19481;51.118;6.940;2023-04-24T11:44:55;4.22;;;2.40;;
33108;SDS011;19481;51.118;6.940;2023-04-24T11:49:57;5.72;;;2.50;;
33108;SDS011;19481;51.118;6.940;2023-04-24T11:54:59;5.03;;;2.13;;
33108;SDS011;19481;51.118;6.940;2023-04-24T12:00:03;7.18;;;2.03;;
33108;SDS011;19481;51.118;6.940;2023-04-24T12:05:06;9.27;;;2.40;;
33108;SDS011;19481;51.118;6.940;2023-04-24T12:10:08;4.88;;;2.28;;
33108;SDS011;19481;51.118;6.940;2023-04-24T12:15:11;8.85;;;2.22;;
33108;SDS011;19481;51.118;6.940;2023-04-24T12:20:13;5.00;;;2.47;;
33108;SDS011;19481;51.118;6.940;2023-04-24T12:25:16;10.40;;;2.30;;
33108;SDS011;19481;51.118;6.940;2023-04-24T12:30:20;5.00;;;1.67;;
33108;SDS011;19481;51.118;6.940;2023-04-24T12:35:22;4.70;;;1.83;;
33108;SDS011;19481;51.118;6.940;2023-04-24T12:40:25;9.10;;;1.90;;
33108;SDS011;19481;51.118;6.940;2023-04-24T12:45:30;3.20;;;2.00;;
33108;SDS011;19481;51.118;6.940;2023-04-24T12:50:31;1.90;;;1.58;;
33108;SDS011;19481;51.118;6.940;2023-04-24T12:55:33;3.17;;;2.28;;
33108;SDS011;19481;51.118;6.940;2023-04-24T13:00:36;3.75;;;1.55;;
33108;SDS011;19481;51.118;6.940;2023-04-24T13:05:39;2.15;;;1.45;;
33108;SDS011;19481;51.118;6.940;2023-04-24T13:10:41;2.58;;;1.70;;
33108;SDS011;19481;51.118;6.940;2023-04-24T13:15:44;5.90;;;1.40;;
33108;SDS011;19481;51.118;6.940;2023-04-24T13:20:45;2.67;;;1.20;;
33108;SDS011;19481;51.118;6.940;2023-04-24T13:25:47;4.00;;;1.40;;
33108;SDS011;19481;51.118;6.940;2023-04-24T13:30:50;1.60;;;1.50;;
33108;SDS011;19481;51.118;6.940;2023-04-24T13:35:52;1.98;;;1.40;;
33108;SDS011;19481;51.118;6.940;2023-04-24T13:40:54;2.28;;;1.58;;
33108;SDS011;19481;51.118;6.940;2023-04-24T13:45:57;2.33;;;1.65;;
33108;SDS011;19481;51.118;6.940;2023-04-24T13:51:02;1.73;;;1.42;;
33108;SDS011;19481;51.118;6.940;2023-04-24T13:56:04;2.72;;;1.50;;
33108;SDS011;19481;51.118;6.940;2023-04-24T14:01:07;3.10;;;1.77;;
33108;SDS011;19481;51.118;6.940;2023-04-24T14:06:09;3.13;;;1.40;;
33108;SDS011;19481;51.118;6.940;2023-04-24T14:11:11;3.00;;;1.40;;
33108;SDS011;19481;51.118;6.940;2023-04-24T14:16:14;3.40;;;1.95;;
33108;SDS011;19481;51.118;6.940;2023-04-24T14:21:15;1.98;;;1.70;;
33108;SDS011;19481;51.118;6.940;2023-04-24T14:26:17;4.03;;;1.40;;
33108;SDS011;19481;51.118;6.940;2023-04-24T14:31:20;3.05;;;1.20;;
33108;SDS011;19481;51.118;6.940;2023-04-24T14:36:22;1.67;;;1.30;;
33108;SDS011;19481;51.118;6.940;2023-04-24T14:41:23;2.50;;;1.40;;
33108;SDS011;19481;51.118;6.940;2023-04-24T14:46:26;3.55;;;1.45;;
33108;SDS011;19481;51.118;6.940;2023-04-24T14:51:28;1.20;;;1.10;;
33108;SDS011;19481;51.118;6.940;2023-04-24T14:56:30;3.17;;;1.50;;
33108;SDS011;19481;51.118;6.940;2023-04-24T15:01:33;8.10;;;1.50;;
33108;SDS011;19481;51.118;6.940;2023-04-24T15:06:34;1.83;;;1.27;;
33108;SDS011;19481;51.118;6.940;2023-04-24T15:11:36;2.05;;;1.25;;
33108;SDS011;19481;51.118;6.940;2023-04-24T15:16:39;2.28;;;1.40;;
33108;SDS011;19481;51.118;6.940;2023-04-24T15:21:40;3.15;;;1.55;;
33108;SDS011;19481;51.118;6.940;2023-04-24T15:26:44;5.32;;;1.40;;
33108;SDS011;19481;51.118;6.940;2023-04-24T15:31:47;2.05;;;1.00;;
33108;SDS011;19481;51.118;6.940;2023-04-24T15:36:48;1.38;;;1.10;;
33108;SDS011;19481;51.118;6.940;2023-04-24T15:41:50;1.67;;;1.10;;
33108;SDS011;19481;51.118;6.940;2023-04-24T15:46:54;2.22;;;1.35;;
33108;SDS011;19481;51.118;6.940;2023-04-24T15:51:56;2.55;;;1.15;;
33108;SDS011;19481;51.118;6.940;2023-04-24T15:56:57;4.50;;;1.60;;
33108;SDS011;19481;51.118;6.940;2023-04-24T16:02:01;2.17;;;1.20;;
33108;SDS011;19481;51.118;6.940;2023-04-24T16:07:03;1.55;;;1.45;;
33108;SDS011;19481;51.118;6.940;2023-04-24T16:12:05;2.05;;;1.33;;
33108;SDS011;19481;51.118;6.940;2023-04-24T16:17:09;2.55;;;1.52;;
33108;SDS011;19481;51.118;6.940;2023-04-24T16:22:11;1.25;;;1.13;;
33108;SDS011;19481;51.118;6.940;2023-04-24T16:27:12;1.77;;;1.20;;
33108;SDS011;19481;51.118;6.940;2023-04-24T16:32:16;3.20;;;1.20;;
33108;SDS011;19481;51.118;6.940;2023-04-24T16:37:17;2.30;;;0.98;;
33108;SDS011;19481;51.118;6.940;2023-04-24T16:42:19;1.83;;;1.30;;
33108;SDS011;19481;51.118;6.940;2023-04-24T16:47:22;1.17;;;1.05;;
33108;SDS011;19481;51.118;6.940;2023-04-24T16:52:24;1.90;;;1.13;;
33108;SDS011;19481;51.118;6.940;2023-04-24T16:57:26;2.05;;;1.30;;
33108;SDS011;19481;51.118;6.940;2023-04-24T17:02:29;1.55;;;1.10;;
33108;SDS011;19481;51.118;6.940;2023-04-24T17:07:30;1.88;;;1.35;;
33108;SDS011;19481;51.118;6.940;2023-04-24T17:12:32;4.43;;;1.20;;
33108;SDS011;19481;51.118;6.940;2023-04-24T17:17:35;1.48;;;1.20;;
33108;SDS011;19481;51.118;6.940;2023-04-24T17:22:36;1.45;;;1.17;;
33108;SDS011;19481;51.118;6.940;2023-04-24T17:27:38;3.63;;;1.23;;
33108;SDS011;19481;51.118;6.940;2023-04-24T17:32:41;1.05;;;0.98;;
33108;SDS011;19481;51.118;6.940;2023-04-24T17:37:43;2.55;;;1.20;;
33108;SDS011;19481;51.118;6.940;2023-04-24T17:42:44;1.55;;;1.13;;
33108;SDS011;19481;51.118;6.940;2023-04-24T17:47:47;2.22;;;1.23;;
33108;SDS011;19481;51.118;6.940;2023-04-24T17:52:49;2.38;;;1.25;;
33108;SDS011;19481;51.118;6.940;2023-04-24T17:57:50;1.75;;;1.20;;
33108;SDS011;19481;51.118;6.940;2023-04-24T18:02:53;2.03;;;0.95;;
33108;SDS011;19481;51.118;6.940;2023-04-24T18:07:59;1.77;;;1.20;;
33108;SDS011;19481;51.118;6.940;2023-04-24T18:13:01;1.60;;;1.02;;
33108;SDS011;19481;51.118;6.940;2023-04-24T18:18:05;1.20;;;1.15;;
33108;SDS011;19481;51.118;6.940;2023-04-24T18:23:07;4.63;;;1.10;;
33108;SDS011;19481;51.118;6.940;2023-04-24T18:28:08;5.50;;;1.25;;
33108;SDS011;19481;51.118;6.940;2023-04-24T18:33:11;3.35;;;1.10;;
33108;SDS011;19481;51.118;6.940;2023-04-24T18:38:13;3.63;;;1.25;;
33108;SDS011;19481;51.118;6.940;2023-04-24T18:43:15;2.17;;;1.40;;
33108;SDS011;19481;51.118;6.940;2023-04-24T18:48:18;3.63;;;1.40;;
33108;SDS011;19481;51.118;6.940;2023-04-24T18:53:19;2.35;;;1.00;;
33108;SDS011;19481;51.118;6.940;2023-04-24T18:58:21;2.40;;;1.02;;
33108;SDS011;19481;51.118;6.940;2023-04-24T19:03:24;3.00;;;1.50;;
33108;SDS011;19481;51.118;6.940;2023-04-24T19:08:27;2.45;;;1.20;;
33108;SDS011;19481;51.118;6.940;2023-04-24T19:13:28;2.47;;;1.10;;
33108;SDS011;19481;51.118;6.940;2023-04-24T19:18:31;3.15;;;1.30;;
33108;SDS011;19481;51.118;6.940;2023-04-24T19:23:33;3.08;;;1.10;;
33108;SDS011;19481;51.118;6.940;2023-04-24T19:28:35;2.00;;;1.05;;
33108;SDS011;19481;51.118;6.940;2023-04-24T19:33:38;2.95;;;1.38;;
33108;SDS011;19481;51.118;6.940;2023-04-24T19:38:40;2.35;;;1.10;;
33108;SDS011;19481;51.118;6.940;2023-04-24T19:43:41;3.45;;;1.40;;
33108;SDS011;19481;51.118;6.940;2023-04-24T19:48:44;1.55;;;1.45;;
33108;SDS011;19481;51.118;6.940;2023-04-24T19:53:46;3.35;;;1.80;;
33108;SDS011;19481;51.118;6.940;2023-04-24T19:58:48;3.50;;;1.65;;
33108;SDS011;19481;51.118;6.940;2023-04-24T20:03:51;3.35;;;1.17;;
33108;SDS011;19481;51.118;6.940;2023-04-24T20:08:52;2.00;;;1.70;;
33108;SDS011;19481;51.118;6.940;2023-04-24T20:13:54;1.70;;;1.42;;
33108;SDS011;19481;51.118;6.940;2023-04-24T20:18:57;2.55;;;1.58;;
33108;SDS011;19481;51.118;6.940;2023-04-24T20:23:59;3.25;;;1.63;;
33108;SDS011;19481;51.118;6.940;2023-04-24T20:29:01;1.75;;;1.60;;
33108;SDS011;19481;51.118;6.940;2023-04-24T20:34:04;3.08;;;1.80;;
33108;SDS011;19481;51.118;6.940;2023-04-24T20:39:05;3.80;;;1.70;;
33108;SDS011;19481;51.118;6.940;2023-04-24T20:44:08;1.88;;;1.50;;
33108;SDS011;19481;51.118;6.940;2023-04-24T20:49:12;3.10;;;1.67;;
33108;SDS011;19481;51.118;6.940;2023-04-24T20:54:13;4.22;;;1.75;;
33108;SDS011;19481;51.118;6.940;2023-04-24T20:59:15;5.13;;;1.67;;
33108;SDS011;19481;51.118;6.940;2023-04-24T21:04:18;3.03;;;1.77;;
33108;SDS011;19481;51.118;6.940;2023-04-24T21:09:19;3.63;;;1.63;;
33108;SDS011;19481;51.118;6.940;2023-04-24T21:14:21;2.22;;;1.80;;
33108;SDS011;19481;51.118;6.940;2023-04-24T21:19:24;2.53;;;1.48;;
33108;SDS011;19481;51.118;6.940;2023-04-24T21:24:25;4.13;;;2.08;;
33108;SDS011;19481;51.118;6.940;2023-04-24T21:29:27;4.57;;;1.50;;
33108;SDS011;19481;51.118;6.940;2023-04-24T21:34:30;4.75;;;1.73;;
33108;SDS011;19481;51.118;6.940;2023-04-24T21:39:32;7.47;;;1.95;;
33108;SDS011;19481;51.118;6.940;2023-04-24T21:44:33;2.03;;;1.48;;
33108;SDS011;19481;51.118;6.940;2023-04-24T21:49:36;3.60;;;2.00;;
33108;SDS011;19481;51.118;6.940;2023-04-24T21:54:38;2.78;;;1.80;;
33108;SDS011;19481;51.118;6.940;2023-04-24T21:59:40;3.78;;;1.70;;
33108;SDS011;19481;51.118;6.940;2023-04-24T22:04:43;4.35;;;2.20;;
33108;SDS011;19481;51.118;6.940;2023-04-24T22:09:44;3.40;;;1.83;;
33108;SDS011;19481;51.118;6.940;2023-04-24T22:14:46;3.72;;;1.95;;
33108;SDS011;19481;51.118;6.940;2023-04-24T22:19:49;2.65;;;2.05;;
33108;SDS011;19481;51.118;6.940;2023-04-24T22:24:51;4.18;;;1.67;;
33108;SDS011;19481;51.118;6.940;2023-04-24T22:29:52;2.58;;;2.20;;
33108;SDS011;19481;51.118;6.940;2023-04-24T22:34:56;7.70;;;2.30;;
33108;SDS011;19481;51.118;6.940;2023-04-24T22:39:58;3.10;;;2.30;;
33108;SDS011;19481;51.118;6.940;2023-04-24T22:45:00;3.30;;;1.92;;
33108;SDS011;19481;51.118;6.940;2023-04-24T22:50:05;1.83;;;1.73;;
33108;SDS011;19481;51.118;6.940;2023-04-24T22:55:09;3.35;;;2.20;;
33108;SDS011;19481;51.118;6.940;2023-04-24T23:00:11;4.15;;;2.20;;
33108;SDS011;19481;51.118;6.940;2023-04-24T23:05:14;7.25;;;2.47;;
33108;SDS011;19481;51.118;6.940;2023-04-24T23:10:16;3.78;;;2.25;;
33108;SDS011;19481;51.118;6.940;2023-04-24T23:15:17;6.93;;;2.47;;
33108;SDS011;19481;51.118;6.940;2023-04-24T23:20:20;5.28;;;2.47;;
33108;SDS011;19481;51.118;6.940;2023-04-24T23:25:22;5.93;;;2.38;;
33108;SDS011;19481;51.118;6.940;2023-04-24T23:30:24;4.93;;;2.08;;
33108;SDS011;19481;51.118;6.940;2023-04-24T23:35:27;4.00;;;2.42;;
33108;SDS011;19481;51.118;6.940;2023-04-24T23:40:28;5.53;;;2.00;;
33108;SDS011;19481;51.118;6.940;2023-04-24T23:45:30;8.57;;;2.22;;
33108;SDS011;19481;51.118;6.940;2023-04-24T23:50:33;8.32;;;2.42;;
33108;SDS011;19481;51.118;6.940;2023-04-24T23:55:35;4.85;;;2.13;;
